sensor_id;sensor_type;location;lat;lon;timestamp;P1;durP1;ratioP1;P2;durP2;ratioP2
14681;SDS011;7429;52.498;13.480;2023-03-29T00:02:19;13.97;;;9.00;;
14681;SDS011;7429;52.498;13.480;2023-03-29T00:05:30;15.73;;;8.10;;
14681;SDS011;7429;52.498;13.480;2023-03-29T00:08:36;10.80;;;8.53;;
14681;SDS011;7429;52.498;13.480;2023-03-29T00:11:40;10.17;;;7.73;;
14681;SDS011;7429;52.498;13.480;2023-03-29T00:14:43;14.93;;;8.30;;
14681;SDS011;7429;52.498;13.480;2023-03-29T00:17:48;10.97;;;8.43;;
14681;SDS011;7429;52.498;13.480;2023-03-29T00:20:55;12.20;;;8.40;;
14681;SDS011;7429;52.498;13.480;2023-03-29T00:24:02;13.93;;;9.13;;
14681;SDS011;7429;52.498;13.480;2023-03-29T00:27:05;10.57;;;8.23;;
14681;SDS011;7429;52.498;13.480;2023-03-29T00:30:08;20.57;;;8.63;;
14681;SDS011;7429;52.498;13.480;2023-03-29T00:33:12;16.33;;;8.70;;
14681;SDS011;7429;52.498;13.480;2023-03-29T00:36:16;14.77;;;8.63;;
14681;SDS011;7429;52.498;13.480;2023-03-29T00:39:20;10.03;;;7.20;;
14681;SDS011;7429;52.498;13.480;2023-03-29T00:42:23;8.27;;;6.70;;
14681;SDS011;7429;52.498;13.480;2023-03-29T00:45:27;10.90;;;7.97;;
14681;SDS011;7429;52.498;13.480;2023-03-29T00:48:31;14.63;;;7.93;;
14681;SDS011;7429;52.498;13.480;2023-03-29T00:51:35;8.57;;;7.63;;
14681;SDS011;7429;52.498;13.480;2023-03-29T00:54:42;11.37;;;7.30;;
14681;SDS011;7429;52.498;13.480;2023-03-29T00:57:47;21.07;;;7.50;;
14681;SDS011;7429;52.498;13.480;2023-03-29T01:00:55;11.50;;;7.40;;
14681;SDS011;7429;52.498;13.480;2023-03-29T01:04:04;8.57;;;7.40;;
14681;SDS011;7429;52.498;13.480;2023-03-29T01:07:20;11.73;;;6.70;;
14681;SDS011;7429;52.498;13.480;2023-03-29T01:10:31;9.67;;;6.60;;
14681;SDS011;7429;52.498;13.480;2023-03-29T01:13:40;10.00;;;6.60;;
14681;SDS011;7429;52.498;13.480;2023-03-29T01:16:46;14.30;;;6.80;;
14681;SDS011;7429;52.498;13.480;2023-03-29T01:19:53;9.53;;;6.53;;
14681;SDS011;7429;52.498;13.480;2023-03-29T01:23:03;8.10;;;6.10;;
14681;SDS011;7429;52.498;13.480;2023-03-29T01:26:29;8.30;;;6.17;;
14681;SDS011;7429;52.498;13.480;2023-03-29T01:29:43;7.87;;;5.87;;
14681;SDS011;7429;52.498;13.480;2023-03-29T01:32:50;15.53;;;6.90;;
14681;SDS011;7429;52.498;13.480;2023-03-29T01:35:58;8.70;;;6.37;;
14681;SDS011;7429;52.498;13.480;2023-03-29T01:39:06;12.10;;;6.20;;
14681;SDS011;7429;52.498;13.480;2023-03-29T01:42:13;11.43;;;6.53;;
14681;SDS011;7429;52.498;13.480;2023-03-29T01:45:31;9.60;;;6.20;;
14681;SDS011;7429;52.498;13.480;2023-03-29T01:48:41;9.80;;;6.50;;
14681;SDS011;7429;52.498;13.480;2023-03-29T01:51:51;7.90;;;6.93;;
14681;SDS011;7429;52.498;13.480;2023-03-29T01:55:01;19.27;;;8.40;;
14681;SDS011;7429;52.498;13.480;2023-03-29T01:58:10;10.47;;;8.33;;
14681;SDS011;7429;52.498;13.480;2023-03-29T02:01:19;8.97;;;7.00;;
14681;SDS011;7429;52.498;13.480;2023-03-29T02:04:28;13.90;;;7.93;;
14681;SDS011;7429;52.498;13.480;2023-03-29T02:07:35;12.33;;;8.60;;
14681;SDS011;7429;52.498;13.480;2023-03-29T02:10:40;12.77;;;7.50;;
14681;SDS011;7429;52.498;13.480;2023-03-29T02:13:44;10.47;;;7.37;;
14681;SDS011;7429;52.498;13.480;2023-03-29T02:16:50;8.37;;;7.10;;
14681;SDS011;7429;52.498;13.480;2023-03-29T02:19:56;10.53;;;6.23;;
14681;SDS011;7429;52.498;13.480;2023-03-29T02:23:15;8.53;;;5.97;;
14681;SDS011;7429;52.498;13.480;2023-03-29T02:26:23;15.03;;;7.70;;
14681;SDS011;7429;52.498;13.480;2023-03-29T02:29:29;9.53;;;7.80;;
14681;SDS011;7429;52.498;13.480;2023-03-29T02:32:36;12.63;;;7.27;;
14681;SDS011;7429;52.498;13.480;2023-03-29T02:35:51;9.77;;;7.63;;
14681;SDS011;7429;52.498;13.480;2023-03-29T02:38:59;13.77;;;8.10;;
14681;SDS011;7429;52.498;13.480;2023-03-29T02:42:08;14.40;;;7.87;;
14681;SDS011;7429;52.498;13.480;2023-03-29T02:45:14;11.50;;;8.20;;
14681;SDS011;7429;52.498;13.480;2023-03-29T02:48:20;11.77;;;7.80;;
14681;SDS011;7429;52.498;13.480;2023-03-29T02:51:28;15.53;;;7.60;;
14681;SDS011;7429;52.498;13.480;2023-03-29T02:54:37;14.37;;;8.77;;
14681;SDS011;7429;52.498;13.480;2023-03-29T02:57:43;16.83;;;9.13;;
14681;SDS011;7429;52.498;13.480;2023-03-29T03:00:47;15.30;;;9.47;;
14681;SDS011;7429;52.498;13.480;2023-03-29T03:03:51;13.40;;;9.83;;
14681;SDS011;7429;52.498;13.480;2023-03-29T03:06:55;12.10;;;9.17;;
14681;SDS011;7429;52.498;13.480;2023-03-29T03:09:59;14.40;;;9.77;;
14681;SDS011;7429;52.498;13.480;2023-03-29T03:13:04;16.10;;;10.00;;
14681;SDS011;7429;52.498;13.480;2023-03-29T03:16:07;13.30;;;9.70;;
14681;SDS011;7429;52.498;13.480;2023-03-29T03:19:12;12.17;;;9.50;;
14681;SDS011;7429;52.498;13.480;2023-03-29T03:22:18;16.67;;;10.23;;
14681;SDS011;7429;52.498;13.480;2023-03-29T03:25:21;15.17;;;9.60;;
14681;SDS011;7429;52.498;13.480;2023-03-29T03:28:25;13.33;;;10.20;;
14681;SDS011;7429;52.498;13.480;2023-03-29T03:31:29;14.60;;;9.53;;
14681;SDS011;7429;52.498;13.480;2023-03-29T03:34:45;12.37;;;10.20;;
14681;SDS011;7429;52.498;13.480;2023-03-29T03:37:49;16.43;;;9.53;;
14681;SDS011;7429;52.498;13.480;2023-03-29T03:40:52;11.77;;;9.23;;
14681;SDS011;7429;52.498;13.480;2023-03-29T03:43:57;14.47;;;10.10;;
14681;SDS011;7429;52.498;13.480;2023-03-29T03:47:00;19.67;;;9.53;;
14681;SDS011;7429;52.498;13.480;2023-03-29T03:50:06;16.77;;;10.30;;
14681;SDS011;7429;52.498;13.480;2023-03-29T03:53:11;14.17;;;10.30;;
14681;SDS011;7429;52.498;13.480;2023-03-29T03:56:53;10.77;;;8.57;;
14681;SDS011;7429;52.498;13.480;2023-03-29T04:00:04;15.03;;;8.43;;
14681;SDS011;7429;52.498;13.480;2023-03-29T04:03:25;14.10;;;9.40;;
14681;SDS011;7429;52.498;13.480;2023-03-29T04:06:31;17.40;;;9.20;;
14681;SDS011;7429;52.498;13.480;2023-03-29T04:09:54;15.80;;;9.00;;
14681;SDS011;7429;52.498;13.480;2023-03-29T04:13:10;23.23;;;9.57;;
14681;SDS011;7429;52.498;13.480;2023-03-29T04:16:33;18.07;;;8.50;;
14681;SDS011;7429;52.498;13.480;2023-03-29T04:19:52;17.37;;;8.17;;
14681;SDS011;7429;52.498;13.480;2023-03-29T04:23:00;15.40;;;9.37;;
14681;SDS011;7429;52.498;13.480;2023-03-29T04:26:04;16.60;;;7.80;;
14681;SDS011;7429;52.498;13.480;2023-03-29T04:29:21;10.30;;;8.37;;
14681;SDS011;7429;52.498;13.480;2023-03-29T04:32:31;11.37;;;7.90;;
14681;SDS011;7429;52.498;13.480;2023-03-29T04:35:39;13.13;;;8.23;;
14681;SDS011;7429;52.498;13.480;2023-03-29T04:38:48;10.57;;;7.90;;
14681;SDS011;7429;52.498;13.480;2023-03-29T04:41:53;9.43;;;7.17;;
14681;SDS011;7429;52.498;13.480;2023-03-29T04:45:00;13.37;;;8.27;;
14681;SDS011;7429;52.498;13.480;2023-03-29T04:48:22;8.97;;;7.73;;
14681;SDS011;7429;52.498;13.480;2023-03-29T04:51:26;15.60;;;8.83;;
14681;SDS011;7429;52.498;13.480;2023-03-29T04:54:32;13.70;;;9.13;;
14681;SDS011;7429;52.498;13.480;2023-03-29T04:57:52;15.07;;;8.23;;
14681;SDS011;7429;52.498;13.480;2023-03-29T05:01:09;12.63;;;9.30;;
14681;SDS011;7429;52.498;13.480;2023-03-29T05:04:19;11.67;;;7.27;;
14681;SDS011;7429;52.498;13.480;2023-03-29T05:07:36;8.40;;;7.13;;
14681;SDS011;7429;52.498;13.480;2023-03-29T05:11:06;9.23;;;8.27;;
14681;SDS011;7429;52.498;13.480;2023-03-29T05:14:10;17.13;;;8.43;;
14681;SDS011;7429;52.498;13.480;2023-03-29T05:17:13;13.80;;;7.90;;
14681;SDS011;7429;52.498;13.480;2023-03-29T05:20:17;11.40;;;7.90;;
14681;SDS011;7429;52.498;13.480;2023-03-29T05:23:22;11.80;;;7.87;;
14681;SDS011;7429;52.498;13.480;2023-03-29T05:26:47;12.17;;;8.40;;
14681;SDS011;7429;52.498;13.480;2023-03-29T05:29:52;12.50;;;7.37;;
14681;SDS011;7429;52.498;13.480;2023-03-29T05:33:00;18.53;;;8.23;;
14681;SDS011;7429;52.498;13.480;2023-03-29T05:36:07;14.53;;;8.13;;
14681;SDS011;7429;52.498;13.480;2023-03-29T05:39:19;11.90;;;8.20;;
14681;SDS011;7429;52.498;13.480;2023-03-29T05:42:26;13.67;;;8.40;;
14681;SDS011;7429;52.498;13.480;2023-03-29T05:45:38;13.47;;;8.30;;
14681;SDS011;7429;52.498;13.480;2023-03-29T05:48:42;20.67;;;9.17;;
14681;SDS011;7429;52.498;13.480;2023-03-29T05:51:45;13.83;;;9.47;;
14681;SDS011;7429;52.498;13.480;2023-03-29T05:54:48;19.67;;;8.90;;
14681;SDS011;7429;52.498;13.480;2023-03-29T05:57:53;13.07;;;7.83;;
14681;SDS011;7429;52.498;13.480;2023-03-29T06:01:00;12.03;;;8.33;;
14681;SDS011;7429;52.498;13.480;2023-03-29T06:04:24;16.67;;;9.77;;
14681;SDS011;7429;52.498;13.480;2023-03-29T06:07:49;13.20;;;9.30;;
14681;SDS011;7429;52.498;13.480;2023-03-29T06:11:11;9.73;;;8.13;;
14681;SDS011;7429;52.498;13.480;2023-03-29T06:14:34;13.77;;;8.63;;
14681;SDS011;7429;52.498;13.480;2023-03-29T06:17:49;14.97;;;8.50;;
14681;SDS011;7429;52.498;13.480;2023-03-29T06:20:55;14.67;;;7.57;;
14681;SDS011;7429;52.498;13.480;2023-03-29T06:23:59;12.97;;;8.07;;
14681;SDS011;7429;52.498;13.480;2023-03-29T06:27:07;10.97;;;7.20;;
14681;SDS011;7429;52.498;13.480;2023-03-29T06:30:13;15.50;;;7.80;;
14681;SDS011;7429;52.498;13.480;2023-03-29T06:33:21;12.33;;;7.13;;
14681;SDS011;7429;52.498;13.480;2023-03-29T06:36:33;13.83;;;8.23;;
14681;SDS011;7429;52.498;13.480;2023-03-29T06:39:36;10.73;;;7.67;;
14681;SDS011;7429;52.498;13.480;2023-03-29T06:43:09;12.80;;;7.83;;
14681;SDS011;7429;52.498;13.480;2023-03-29T06:46:27;10.87;;;7.70;;
14681;SDS011;7429;52.498;13.480;2023-03-29T06:49:34;9.03;;;7.50;;
14681;SDS011;7429;52.498;13.480;2023-03-29T06:52:49;12.83;;;8.40;;
14681;SDS011;7429;52.498;13.480;2023-03-29T06:55:52;10.23;;;7.17;;
14681;SDS011;7429;52.498;13.480;2023-03-29T06:59:10;11.70;;;7.60;;
14681;SDS011;7429;52.498;13.480;2023-03-29T07:02:27;12.63;;;7.50;;
14681;SDS011;7429;52.498;13.480;2023-03-29T07:05:36;7.73;;;6.93;;
14681;SDS011;7429;52.498;13.480;2023-03-29T07:08:43;15.53;;;7.77;;
14681;SDS011;7429;52.498;13.480;2023-03-29T07:11:53;13.77;;;7.27;;
14681;SDS011;7429;52.498;13.480;2023-03-29T07:14:58;10.77;;;7.53;;
14681;SDS011;7429;52.498;13.480;2023-03-29T07:18:23;11.07;;;7.33;;
14681;SDS011;7429;52.498;13.480;2023-03-29T07:21:27;11.23;;;7.27;;
14681;SDS011;7429;52.498;13.480;2023-03-29T07:24:30;8.80;;;7.43;;
14681;SDS011;7429;52.498;13.480;2023-03-29T07:27:35;17.53;;;7.23;;
14681;SDS011;7429;52.498;13.480;2023-03-29T07:30:42;11.20;;;6.37;;
14681;SDS011;7429;52.498;13.480;2023-03-29T07:33:50;12.17;;;7.10;;
14681;SDS011;7429;52.498;13.480;2023-03-29T07:36:59;13.00;;;8.10;;
14681;SDS011;7429;52.498;13.480;2023-03-29T07:40:02;28.33;;;8.57;;
14681;SDS011;7429;52.498;13.480;2023-03-29T07:43:42;8.17;;;7.30;;
14681;SDS011;7429;52.498;13.480;2023-03-29T07:46:50;10.23;;;6.83;;
14681;SDS011;7429;52.498;13.480;2023-03-29T07:49:55;15.13;;;7.17;;
14681;SDS011;7429;52.498;13.480;2023-03-29T07:52:59;10.10;;;7.00;;
14681;SDS011;7429;52.498;13.480;2023-03-29T07:56:05;16.63;;;7.07;;
14681;SDS011;7429;52.498;13.480;2023-03-29T07:59:21;11.67;;;7.37;;
14681;SDS011;7429;52.498;13.480;2023-03-29T08:02:39;12.80;;;7.23;;
14681;SDS011;7429;52.498;13.480;2023-03-29T08:05:47;12.03;;;6.40;;
14681;SDS011;7429;52.498;13.480;2023-03-29T08:08:50;12.63;;;6.83;;
14681;SDS011;7429;52.498;13.480;2023-03-29T08:11:53;14.40;;;7.33;;
14681;SDS011;7429;52.498;13.480;2023-03-29T08:15:03;8.57;;;6.63;;
14681;SDS011;7429;52.498;13.480;2023-03-29T08:18:08;8.40;;;7.07;;
14681;SDS011;7429;52.498;13.480;2023-03-29T08:21:12;11.57;;;6.93;;
14681;SDS011;7429;52.498;13.480;2023-03-29T08:24:20;15.70;;;7.23;;
14681;SDS011;7429;52.498;13.480;2023-03-29T08:27:29;8.70;;;6.10;;
14681;SDS011;7429;52.498;13.480;2023-03-29T08:30:32;10.20;;;6.37;;
14681;SDS011;7429;52.498;13.480;2023-03-29T08:33:37;6.27;;;5.30;;
14681;SDS011;7429;52.498;13.480;2023-03-29T08:37:13;7.20;;;5.70;;
14681;SDS011;7429;52.498;13.480;2023-03-29T08:40:20;10.53;;;5.23;;
14681;SDS011;7429;52.498;13.480;2023-03-29T08:43:51;9.43;;;5.40;;
14681;SDS011;7429;52.498;13.480;2023-03-29T08:47:28;6.07;;;5.10;;
14681;SDS011;7429;52.498;13.480;2023-03-29T08:50:46;5.53;;;4.70;;
14681;SDS011;7429;52.498;13.480;2023-03-29T08:53:56;12.23;;;5.97;;
14681;SDS011;7429;52.498;13.480;2023-03-29T08:57:27;9.47;;;5.30;;
14681;SDS011;7429;52.498;13.480;2023-03-29T09:00:42;7.27;;;5.57;;
14681;SDS011;7429;52.498;13.480;2023-03-29T09:03:50;10.80;;;5.00;;
14681;SDS011;7429;52.498;13.480;2023-03-29T09:07:43;8.97;;;5.13;;
14681;SDS011;7429;52.498;13.480;2023-03-29T09:10:53;7.30;;;5.80;;
14681;SDS011;7429;52.498;13.480;2023-03-29T09:14:21;8.93;;;5.57;;
14681;SDS011;7429;52.498;13.480;2023-03-29T09:17:54;7.90;;;5.70;;
14681;SDS011;7429;52.498;13.480;2023-03-29T09:21:09;8.53;;;5.93;;
14681;SDS011;7429;52.498;13.480;2023-03-29T09:27:57;9.57;;;5.37;;
14681;SDS011;7429;52.498;13.480;2023-03-29T09:31:23;7.33;;;5.07;;
14681;SDS011;7429;52.498;13.480;2023-03-29T09:34:30;7.77;;;5.43;;
14681;SDS011;7429;52.498;13.480;2023-03-29T09:37:51;11.10;;;5.30;;
14681;SDS011;7429;52.498;13.480;2023-03-29T09:40:56;5.93;;;4.80;;
14681;SDS011;7429;52.498;13.480;2023-03-29T09:44:09;8.50;;;6.37;;
14681;SDS011;7429;52.498;13.480;2023-03-29T09:47:22;7.43;;;5.23;;
14681;SDS011;7429;52.498;13.480;2023-03-29T09:50:34;10.20;;;5.20;;
14681;SDS011;7429;52.498;13.480;2023-03-29T09:53:42;6.87;;;5.73;;
14681;SDS011;7429;52.498;13.480;2023-03-29T09:56:57;7.93;;;5.53;;
14681;SDS011;7429;52.498;13.480;2023-03-29T10:00:03;4.77;;;4.37;;
14681;SDS011;7429;52.498;13.480;2023-03-29T10:03:16;5.67;;;4.70;;
14681;SDS011;7429;52.498;13.480;2023-03-29T10:06:28;6.57;;;4.90;;
14681;SDS011;7429;52.498;13.480;2023-03-29T10:09:35;6.87;;;5.67;;
14681;SDS011;7429;52.498;13.480;2023-03-29T10:12:49;4.60;;;4.17;;
14681;SDS011;7429;52.498;13.480;2023-03-29T10:16:03;6.40;;;4.83;;
14681;SDS011;7429;52.498;13.480;2023-03-29T10:19:17;6.13;;;4.90;;
14681;SDS011;7429;52.498;13.480;2023-03-29T10:22:22;7.83;;;4.87;;
14681;SDS011;7429;52.498;13.480;2023-03-29T10:25:29;7.00;;;4.70;;
14681;SDS011;7429;52.498;13.480;2023-03-29T10:28:34;5.00;;;4.60;;
14681;SDS011;7429;52.498;13.480;2023-03-29T10:31:43;6.13;;;4.63;;
14681;SDS011;7429;52.498;13.480;2023-03-29T10:34:46;5.57;;;5.03;;
14681;SDS011;7429;52.498;13.480;2023-03-29T10:37:50;6.60;;;4.77;;
14681;SDS011;7429;52.498;13.480;2023-03-29T10:41:01;5.13;;;4.73;;
14681;SDS011;7429;52.498;13.480;2023-03-29T10:44:09;4.73;;;4.33;;
14681;SDS011;7429;52.498;13.480;2023-03-29T10:51:26;6.40;;;4.70;;
14681;SDS011;7429;52.498;13.480;2023-03-29T10:54:31;5.13;;;4.70;;
14681;SDS011;7429;52.498;13.480;2023-03-29T10:57:36;5.67;;;4.80;;
14681;SDS011;7429;52.498;13.480;2023-03-29T11:00:50;4.90;;;4.43;;
14681;SDS011;7429;52.498;13.480;2023-03-29T11:04:04;5.83;;;4.93;;
14681;SDS011;7429;52.498;13.480;2023-03-29T11:07:27;5.97;;;5.07;;
14681;SDS011;7429;52.498;13.480;2023-03-29T11:10:36;7.23;;;5.33;;
14681;SDS011;7429;52.498;13.480;2023-03-29T11:13:48;7.10;;;5.40;;
14681;SDS011;7429;52.498;13.480;2023-03-29T11:17:04;5.40;;;4.80;;
14681;SDS011;7429;52.498;13.480;2023-03-29T11:20:27;5.57;;;4.90;;
14681;SDS011;7429;52.498;13.480;2023-03-29T11:23:37;6.30;;;5.03;;
14681;SDS011;7429;52.498;13.480;2023-03-29T11:26:52;12.77;;;5.03;;
14681;SDS011;7429;52.498;13.480;2023-03-29T11:30:06;5.83;;;4.97;;
14681;SDS011;7429;52.498;13.480;2023-03-29T11:33:17;7.27;;;5.00;;
14681;SDS011;7429;52.498;13.480;2023-03-29T11:36:34;7.43;;;4.90;;
14681;SDS011;7429;52.498;13.480;2023-03-29T11:39:54;5.33;;;4.60;;
14681;SDS011;7429;52.498;13.480;2023-03-29T11:43:37;5.73;;;5.10;;
14681;SDS011;7429;52.498;13.480;2023-03-29T11:46:45;5.53;;;4.47;;
14681;SDS011;7429;52.498;13.480;2023-03-29T11:49:55;5.83;;;5.20;;
14681;SDS011;7429;52.498;13.480;2023-03-29T11:53:04;5.33;;;4.93;;
14681;SDS011;7429;52.498;13.480;2023-03-29T11:56:18;5.90;;;5.23;;
14681;SDS011;7429;52.498;13.480;2023-03-29T11:59:31;5.97;;;5.43;;
14681;SDS011;7429;52.498;13.480;2023-03-29T12:02:41;7.60;;;5.13;;
14681;SDS011;7429;52.498;13.480;2023-03-29T12:05:49;7.40;;;5.83;;
14681;SDS011;7429;52.498;13.480;2023-03-29T12:09:01;5.43;;;4.73;;
14681;SDS011;7429;52.498;13.480;2023-03-29T12:12:09;8.17;;;5.70;;
14681;SDS011;7429;52.498;13.480;2023-03-29T12:15:18;10.33;;;5.00;;
14681;SDS011;7429;52.498;13.480;2023-03-29T12:18:26;6.43;;;5.47;;
14681;SDS011;7429;52.498;13.480;2023-03-29T12:21:33;8.57;;;4.87;;
14681;SDS011;7429;52.498;13.480;2023-03-29T12:24:41;5.57;;;4.63;;
14681;SDS011;7429;52.498;13.480;2023-03-29T12:27:50;8.53;;;5.10;;
14681;SDS011;7429;52.498;13.480;2023-03-29T12:31:10;7.60;;;4.97;;
14681;SDS011;7429;52.498;13.480;2023-03-29T12:34:27;8.73;;;6.10;;
14681;SDS011;7429;52.498;13.480;2023-03-29T12:38:03;7.70;;;5.53;;
14681;SDS011;7429;52.498;13.480;2023-03-29T12:41:38;9.33;;;5.93;;
14681;SDS011;7429;52.498;13.480;2023-03-29T12:45:04;5.70;;;5.10;;
14681;SDS011;7429;52.498;13.480;2023-03-29T12:48:14;5.60;;;4.93;;
14681;SDS011;7429;52.498;13.480;2023-03-29T12:51:22;6.27;;;5.70;;
14681;SDS011;7429;52.498;13.480;2023-03-29T12:54:37;5.33;;;4.83;;
14681;SDS011;7429;52.498;13.480;2023-03-29T12:57:57;6.17;;;5.23;;
14681;SDS011;7429;52.498;13.480;2023-03-29T13:01:06;5.67;;;4.70;;
14681;SDS011;7429;52.498;13.480;2023-03-29T13:04:14;7.97;;;6.20;;
14681;SDS011;7429;52.498;13.480;2023-03-29T13:07:28;7.47;;;5.23;;
14681;SDS011;7429;52.498;13.480;2023-03-29T13:10:36;6.03;;;5.43;;
14681;SDS011;7429;52.498;13.480;2023-03-29T13:13:44;6.20;;;5.60;;
14681;SDS011;7429;52.498;13.480;2023-03-29T13:16:53;7.57;;;5.43;;
14681;SDS011;7429;52.498;13.480;2023-03-29T13:20:24;6.53;;;5.27;;
14681;SDS011;7429;52.498;13.480;2023-03-29T13:23:44;11.03;;;5.27;;
14681;SDS011;7429;52.498;13.480;2023-03-29T13:26:59;6.00;;;4.70;;
14681;SDS011;7429;52.498;13.480;2023-03-29T13:30:19;5.47;;;4.60;;
14681;SDS011;7429;52.498;13.480;2023-03-29T13:36:56;8.27;;;5.30;;
14681;SDS011;7429;52.498;13.480;2023-03-29T13:43:47;7.17;;;5.37;;
14681;SDS011;7429;52.498;13.480;2023-03-29T13:47:03;7.13;;;5.53;;
14681;SDS011;7429;52.498;13.480;2023-03-29T13:50:18;9.40;;;5.73;;
14681;SDS011;7429;52.498;13.480;2023-03-29T13:53:35;5.73;;;5.20;;
14681;SDS011;7429;52.498;13.480;2023-03-29T13:56:58;7.03;;;5.20;;
14681;SDS011;7429;52.498;13.480;2023-03-29T14:00:10;7.37;;;5.70;;
14681;SDS011;7429;52.498;13.480;2023-03-29T14:03:21;6.10;;;5.37;;
14681;SDS011;7429;52.498;13.480;2023-03-29T14:06:30;7.07;;;5.33;;
14681;SDS011;7429;52.498;13.480;2023-03-29T14:09:38;6.00;;;5.43;;
14681;SDS011;7429;52.498;13.480;2023-03-29T14:12:46;6.20;;;5.60;;
14681;SDS011;7429;52.498;13.480;2023-03-29T14:15:50;7.97;;;4.87;;
14681;SDS011;7429;52.498;13.480;2023-03-29T14:18:58;7.40;;;5.83;;
14681;SDS011;7429;52.498;13.480;2023-03-29T14:22:06;8.00;;;5.70;;
14681;SDS011;7429;52.498;13.480;2023-03-29T14:25:12;6.13;;;5.37;;
14681;SDS011;7429;52.498;13.480;2023-03-29T14:28:19;6.43;;;5.77;;
14681;SDS011;7429;52.498;13.480;2023-03-29T14:31:25;7.83;;;6.13;;
14681;SDS011;7429;52.498;13.480;2023-03-29T14:34:33;6.37;;;5.70;;
14681;SDS011;7429;52.498;13.480;2023-03-29T14:37:36;7.60;;;5.27;;
14681;SDS011;7429;52.498;13.480;2023-03-29T14:40:39;8.20;;;6.23;;
14681;SDS011;7429;52.498;13.480;2023-03-29T14:43:45;9.23;;;6.33;;
14681;SDS011;7429;52.498;13.480;2023-03-29T14:46:48;11.20;;;6.20;;
14681;SDS011;7429;52.498;13.480;2023-03-29T14:49:56;7.60;;;6.23;;
14681;SDS011;7429;52.498;13.480;2023-03-29T14:53:04;8.57;;;5.93;;
14681;SDS011;7429;52.498;13.480;2023-03-29T14:56:08;7.77;;;6.30;;
14681;SDS011;7429;52.498;13.480;2023-03-29T14:59:20;8.57;;;6.30;;
14681;SDS011;7429;52.498;13.480;2023-03-29T15:02:29;8.33;;;6.37;;
14681;SDS011;7429;52.498;13.480;2023-03-29T15:05:36;8.37;;;6.67;;
14681;SDS011;7429;52.498;13.480;2023-03-29T15:08:43;6.93;;;6.13;;
14681;SDS011;7429;52.498;13.480;2023-03-29T15:12:04;8.90;;;6.00;;
14681;SDS011;7429;52.498;13.480;2023-03-29T15:15:17;6.87;;;6.27;;
14681;SDS011;7429;52.498;13.480;2023-03-29T15:18:21;7.40;;;5.87;;
14681;SDS011;7429;52.498;13.480;2023-03-29T15:21:31;7.20;;;6.43;;
14681;SDS011;7429;52.498;13.480;2023-03-29T15:24:40;7.33;;;6.40;;
14681;SDS011;7429;52.498;13.480;2023-03-29T15:27:54;8.47;;;6.70;;
14681;SDS011;7429;52.498;13.480;2023-03-29T15:31:02;8.57;;;7.13;;
14681;SDS011;7429;52.498;13.480;2023-03-29T15:34:13;11.30;;;7.33;;
14681;SDS011;7429;52.498;13.480;2023-03-29T15:37:28;9.80;;;7.70;;
14681;SDS011;7429;52.498;13.480;2023-03-29T15:40:31;9.77;;;7.03;;
14681;SDS011;7429;52.498;13.480;2023-03-29T15:43:34;10.87;;;7.70;;
14681;SDS011;7429;52.498;13.480;2023-03-29T15:46:37;8.97;;;8.07;;
14681;SDS011;7429;52.498;13.480;2023-03-29T15:49:40;9.30;;;7.70;;
14681;SDS011;7429;52.498;13.480;2023-03-29T15:52:44;10.37;;;8.03;;
14681;SDS011;7429;52.498;13.480;2023-03-29T15:55:49;7.93;;;7.13;;
14681;SDS011;7429;52.498;13.480;2023-03-29T15:58:53;8.80;;;7.77;;
14681;SDS011;7429;52.498;13.480;2023-03-29T16:01:56;8.47;;;7.27;;
14681;SDS011;7429;52.498;13.480;2023-03-29T16:05:00;9.93;;;8.00;;
14681;SDS011;7429;52.498;13.480;2023-03-29T16:08:05;9.10;;;8.20;;
14681;SDS011;7429;52.498;13.480;2023-03-29T16:11:10;8.67;;;7.70;;
14681;SDS011;7429;52.498;13.480;2023-03-29T16:14:18;13.27;;;8.53;;
14681;SDS011;7429;52.498;13.480;2023-03-29T16:17:25;11.70;;;7.37;;
14681;SDS011;7429;52.498;13.480;2023-03-29T16:20:28;8.73;;;7.90;;
14681;SDS011;7429;52.498;13.480;2023-03-29T16:23:33;9.20;;;7.93;;
14681;SDS011;7429;52.498;13.480;2023-03-29T16:26:36;11.37;;;8.57;;
14681;SDS011;7429;52.498;13.480;2023-03-29T16:29:39;11.33;;;8.20;;
14681;SDS011;7429;52.498;13.480;2023-03-29T16:32:45;12.10;;;9.27;;
14681;SDS011;7429;52.498;13.480;2023-03-29T16:35:48;10.37;;;8.17;;
14681;SDS011;7429;52.498;13.480;2023-03-29T16:38:56;9.53;;;8.40;;
14681;SDS011;7429;52.498;13.480;2023-03-29T16:41:59;11.90;;;8.10;;
14681;SDS011;7429;52.498;13.480;2023-03-29T16:45:07;9.57;;;7.97;;
14681;SDS011;7429;52.498;13.480;2023-03-29T16:48:15;9.13;;;8.00;;
14681;SDS011;7429;52.498;13.480;2023-03-29T16:51:20;10.70;;;8.10;;
14681;SDS011;7429;52.498;13.480;2023-03-29T16:54:24;9.97;;;8.93;;
14681;SDS011;7429;52.498;13.480;2023-03-29T16:57:30;10.13;;;8.37;;
14681;SDS011;7429;52.498;13.480;2023-03-29T17:00:33;9.50;;;8.33;;
14681;SDS011;7429;52.498;13.480;2023-03-29T17:03:37;8.97;;;7.47;;
14681;SDS011;7429;52.498;13.480;2023-03-29T17:06:41;9.53;;;8.50;;
14681;SDS011;7429;52.498;13.480;2023-03-29T17:09:45;11.70;;;7.47;;
14681;SDS011;7429;52.498;13.480;2023-03-29T17:12:48;13.20;;;9.20;;
14681;SDS011;7429;52.498;13.480;2023-03-29T17:15:52;13.03;;;9.10;;
14681;SDS011;7429;52.498;13.480;2023-03-29T17:18:56;11.57;;;9.80;;
14681;SDS011;7429;52.498;13.480;2023-03-29T17:22:00;12.70;;;8.40;;
14681;SDS011;7429;52.498;13.480;2023-03-29T17:25:06;10.47;;;9.37;;
14681;SDS011;7429;52.498;13.480;2023-03-29T17:28:10;9.93;;;8.03;;
14681;SDS011;7429;52.498;13.480;2023-03-29T17:31:13;11.67;;;8.87;;
14681;SDS011;7429;52.498;13.480;2023-03-29T17:34:17;9.23;;;7.90;;
14681;SDS011;7429;52.498;13.480;2023-03-29T17:37:20;11.87;;;7.83;;
14681;SDS011;7429;52.498;13.480;2023-03-29T17:40:25;9.00;;;8.20;;
14681;SDS011;7429;52.498;13.480;2023-03-29T17:43:29;10.33;;;9.20;;
14681;SDS011;7429;52.498;13.480;2023-03-29T17:46:33;11.37;;;9.03;;
14681;SDS011;7429;52.498;13.480;2023-03-29T17:49:38;10.97;;;8.57;;
14681;SDS011;7429;52.498;13.480;2023-03-29T17:52:41;9.57;;;8.67;;
14681;SDS011;7429;52.498;13.480;2023-03-29T17:55:45;9.40;;;8.40;;
14681;SDS011;7429;52.498;13.480;2023-03-29T17:58:48;9.17;;;8.27;;
14681;SDS011;7429;52.498;13.480;2023-03-29T18:01:52;11.20;;;8.90;;
14681;SDS011;7429;52.498;13.480;2023-03-29T18:04:58;10.00;;;8.30;;
14681;SDS011;7429;52.498;13.480;2023-03-29T18:08:02;10.50;;;8.07;;
14681;SDS011;7429;52.498;13.480;2023-03-29T18:11:10;9.70;;;8.63;;
14681;SDS011;7429;52.498;13.480;2023-03-29T18:14:19;9.07;;;8.17;;
14681;SDS011;7429;52.498;13.480;2023-03-29T18:17:22;12.90;;;7.70;;
14681;SDS011;7429;52.498;13.480;2023-03-29T18:20:27;11.13;;;8.03;;
14681;SDS011;7429;52.498;13.480;2023-03-29T18:23:30;13.60;;;8.70;;
14681;SDS011;7429;52.498;13.480;2023-03-29T18:26:35;12.27;;;8.40;;
14681;SDS011;7429;52.498;13.480;2023-03-29T18:29:38;9.50;;;8.17;;
14681;SDS011;7429;52.498;13.480;2023-03-29T18:32:41;9.47;;;8.20;;
14681;SDS011;7429;52.498;13.480;2023-03-29T18:35:45;11.77;;;9.93;;
14681;SDS011;7429;52.498;13.480;2023-03-29T18:38:50;10.53;;;9.53;;
14681;SDS011;7429;52.498;13.480;2023-03-29T18:41:57;12.37;;;8.87;;
14681;SDS011;7429;52.498;13.480;2023-03-29T18:45:01;13.60;;;8.67;;
14681;SDS011;7429;52.498;13.480;2023-03-29T18:48:04;11.10;;;9.27;;
14681;SDS011;7429;52.498;13.480;2023-03-29T18:51:08;10.60;;;9.43;;
14681;SDS011;7429;52.498;13.480;2023-03-29T18:54:12;11.80;;;9.30;;
14681;SDS011;7429;52.498;13.480;2023-03-29T18:57:17;11.30;;;9.50;;
14681;SDS011;7429;52.498;13.480;2023-03-29T19:00:21;10.07;;;9.07;;
14681;SDS011;7429;52.498;13.480;2023-03-29T19:03:24;13.33;;;10.53;;
14681;SDS011;7429;52.498;13.480;2023-03-29T19:06:28;12.80;;;9.70;;
14681;SDS011;7429;52.498;13.480;2023-03-29T19:09:31;12.67;;;10.17;;